| Date | Time | Temp. (oF) | Dew Point (oF) | Rel. Hum. (%) | Press. (in.) | Wind Dir. | Wind Speed (mph) | Hourly Rainfall (in.) |
|
|---|---|---|---|---|---|---|---|---|---|
| 1 | 07/13 | 00:00 | 65 | 53 | 67 | 29.93 | N | 0 | 0.00 |
| 2 | 07/12 | 23:00 | 70 | 51 | 52 | 29.92 | N | 0 | 0.00 |
| 3 | 07/12 | 22:00 | 73 | 51 | 47 | 29.92 | NNE | 0 | 0.00 |
| 4 | 07/12 | 21:00 | 76 | 52 | 44 | 29.90 | N | 3 | 0.00 |
| 5 | 07/12 | 20:00 | 79 | 54 | 43 | 29.88 | N | 5 | 0.00 |
| 6 | 07/12 | 19:00 | 82 | 54 | 39 | 29.87 | N | 8 | 0.00 |
| 7 | 07/12 | 18:00 | 84 | 55 | 38 | 29.87 | N | 2 | 0.00 |
| 8 | 07/12 | 17:00 | 84 | 57 | 41 | 29.88 | NW | 9 | 0.00 |
| 9 | 07/12 | 16:00 | 84 | 58 | 42 | 29.90 | NNW | 1 | 0.00 |
| 10 | 07/12 | 15:00 | 83 | 59 | 46 | 29.92 | WNW | 3 | 0.00 |
| 11 | 07/12 | 14:00 | 82 | 57 | 44 | 29.93 | NE | 5 | 0.00 |
| 12 | 07/12 | 13:00 | 81 | 58 | 46 | 29.96 | NW | 6 | 0.00 |
| 13 | 07/12 | 12:00 | 80 | 57 | 47 | 29.98 | NW | 5 | 0.00 |
| 14 | 07/12 | 11:00 | 78 | 65 | 65 | 29.99 | NNW | 4 | 0.00 |
| 15 | 07/12 | 10:00 | 75 | 64 | 71 | 29.99 | NNE | 10 | 0.00 |
| 16 | 07/12 | 09:00 | 73 | 67 | 82 | 30.00 | NE | 3 | 0.00 |
| 17 | 07/12 | 08:00 | 70 | 68 | 94 | 29.99 | NNW | 1 | 0.00 |
| 18 | 07/12 | 07:00 | 68 | 67 | 97 | 29.97 | N | 0 | 0.00 |
| 19 | 07/12 | 06:00 | 67 | 65 | 96 | 29.95 | NE | 0 | 0.00 |
| 20 | 07/12 | 05:00 | 68 | 66 | 96 | 29.93 | NW | 0 | 0.00 |
| 21 | 07/12 | 04:00 | 68 | 66 | 94 | 29.93 | E | 0 | 0.00 |
| 22 | 07/12 | 03:00 | 70 | 67 | 92 | 29.92 | ENE | 0 | 0.00 |
| 23 | 07/12 | 02:00 | 72 | 68 | 90 | 29.93 | NNE | 0 | 0.00 |
| 24 | 07/12 | 01:00 | 73 | 69 | 89 | 29.93 | NE | 0 | 0.00 |